Aérodrome :
LOGIN :

S'inscrire | Disclaimer

   EN    FR    IT 

 










Légende :    VFR   VFR Marginal   IFR   IFR Intensif   IFR Très Intensif
Visi : 
Plafond : 
>= 8 km
>= 3000ft
5 à 8 km
1000 à 3000 ft
1500m à 5 km
500 à 1000 ft
800 à 1500m
200 à 500 ft
< 800m
< 200 ft
Symboles :   Orages  Brouillard  Fortes neiges  Fortes précipitations  Vent > 20 kt
SIGMETs :   Divers  Orages  Givrage  Turbulence  Onde Orograph.  Cendres Volcan.






- Altitude de l'aérodrome : 659 ft
- Code IATA : LGG


EBLG - Liège

DERNIER METAR :
  • 281920Z 04008KT CAVOK 17/01 Q1029 NOSIG

METARs EXPIRÉS :
  • 281850Z 04009KT CAVOK 18/02 Q1029 NOSIG
  • 281820Z 04010KT CAVOK 18/01 Q1029 NOSIG
  • 281750Z 03011KT CAVOK 19/01 Q1029 NOSIG
  • 281720Z 05011KT CAVOK 19/01 Q1030 NOSIG
  • 281650Z 04012KT 010V080 CAVOK 20/01 Q1030 NOSIG

TAF TAF EBLG
Valide du 28 à 18h jusqu'au 30 à 00h UTC


281710Z 2818/2924 04008KT CAVOK



MET'MAP, la Météo Aéronautique d'un coup d'oeil ! - Copyright ORBIFLY Décembre 2007 - Disclaimer

ORBIFLY MET'MAP TEAM :

Programmation & Développement : Alexandra Zaïnal
Sur une idée originale de : Baudouin d'Aumeries
Assistance à la programmation : Marc-Olivier Méhu
Soutien technique & logistique : Manuel Goepfert

Contact : metmap@orbifly.com




SOURCES & CREDITS :

   NOAA